createdAt,value
2023-04-13T00:00:23.849Z,98594.00
2023-04-13T00:02:55.834Z,98602.72
2023-04-13T00:05:25.069Z,98596.94
2023-04-13T00:07:54.803Z,98604.84
2023-04-13T00:10:22.874Z,98594.28
2023-04-13T00:12:52.000Z,98608.13
2023-04-13T00:15:20.646Z,98622.00
2023-04-13T00:17:48.618Z,98607.25
2023-04-13T00:20:16.751Z,98600.38
2023-04-13T00:22:45.809Z,98616.38
2023-04-13T00:25:16.507Z,98625.50
2023-04-13T00:27:44.895Z,98612.69
2023-04-13T00:30:15.747Z,98626.69
2023-04-13T00:32:45.722Z,98604.22
2023-04-13T00:35:18.580Z,98628.06
2023-04-13T00:37:47.830Z,98630.47
2023-04-13T00:40:17.922Z,98614.78
2023-04-13T00:42:46.189Z,98599.19
2023-04-13T00:45:14.725Z,98623.69
2023-04-13T00:47:46.601Z,98617.97
2023-04-13T00:50:15.348Z,98613.75
2023-04-13T00:52:43.725Z,98598.00
2023-04-13T00:55:11.707Z,98616.09
2023-04-13T00:57:42.399Z,98616.63
2023-04-13T01:00:11.033Z,98617.63
2023-04-13T01:02:42.199Z,98618.41
2023-04-13T01:05:12.937Z,98614.91
2023-04-13T01:07:56.705Z,98611.72
2023-04-13T01:10:30.309Z,98609.94
2023-04-13T01:13:10.189Z,98615.84
2023-04-13T01:15:41.372Z,98625.38
2023-04-13T01:18:12.193Z,98620.16
2023-04-13T01:20:44.080Z,98628.09
2023-04-13T01:23:25.132Z,98616.34
2023-04-13T01:25:58.167Z,98627.78
2023-04-13T01:28:28.871Z,98627.44
2023-04-13T01:31:00.829Z,98638.19
2023-04-13T01:33:30.635Z,98634.03
2023-04-13T01:36:01.252Z,98633.22
2023-04-13T01:38:29.890Z,98628.41
2023-04-13T01:40:58.186Z,98639.06
2023-04-13T01:43:29.255Z,98661.22
2023-04-13T01:46:04.101Z,98673.38
2023-04-13T01:48:37.657Z,98681.38
2023-04-13T01:51:09.844Z,98682.16
2023-04-13T01:53:43.447Z,98683.28
2023-04-13T01:56:12.969Z,98699.94
2023-04-13T01:58:44.299Z,98706.56
2023-04-13T02:01:12.755Z,98716.41
2023-04-13T02:03:43.246Z,98720.97
2023-04-13T02:06:11.792Z,98719.88
2023-04-13T02:08:40.199Z,98715.28
2023-04-13T02:11:08.715Z,98725.84
2023-04-13T02:13:36.829Z,98729.22
2023-04-13T02:16:07.841Z,98737.22
2023-04-13T02:18:35.553Z,98734.56
2023-04-13T02:21:08.956Z,98728.25
2023-04-13T02:23:37.287Z,98732.47
2023-04-13T02:26:05.644Z,98739.06
2023-04-13T02:28:33.870Z,98735.84
2023-04-13T02:31:03.197Z,98742.50
2023-04-13T02:33:32.771Z,98751.22
2023-04-13T02:36:02.735Z,98757.75
2023-04-13T02:38:30.863Z,98762.56
2023-04-13T02:41:00.544Z,98757.75
2023-04-13T02:43:29.631Z,98772.56
2023-04-13T02:45:58.276Z,98773.59
2023-04-13T02:48:26.577Z,98784.66
2023-04-13T02:50:56.738Z,98786.72
2023-04-13T02:53:25.200Z,98790.41
2023-04-13T02:55:53.657Z,98795.13
2023-04-13T02:58:24.299Z,98797.75
2023-04-13T03:00:52.149Z,98798.31
2023-04-13T03:03:20.402Z,98804.53
2023-04-13T03:05:51.136Z,98807.97
2023-04-13T03:08:20.254Z,98819.25
2023-04-13T03:10:48.022Z,98822.13
2023-04-13T03:13:16.538Z,98818.69
2023-04-13T03:15:44.204Z,98829.25
2023-04-13T03:18:11.921Z,98831.78
2023-04-13T03:20:40.341Z,98835.22
2023-04-13T03:23:08.005Z,98838.22
2023-04-13T03:25:37.066Z,98842.56
2023-04-13T03:28:05.266Z,98847.03
2023-04-13T03:30:33.039Z,98854.97
2023-04-13T03:33:00.824Z,98853.91
2023-04-13T03:35:29.122Z,98856.00
2023-04-13T03:37:57.009Z,98860.25
2023-04-13T03:40:24.776Z,98868.16
2023-04-13T03:42:54.395Z,98872.41
2023-04-13T03:45:21.904Z,98871.38
2023-04-13T03:47:49.716Z,98877.22
2023-04-13T03:50:18.113Z,98878.25
2023-04-13T03:52:45.792Z,98889.84
2023-04-13T03:55:13.633Z,98890.78
2023-04-13T03:57:41.981Z,98880.81
2023-04-13T04:00:14.278Z,98895.34
2023-04-13T04:02:42.779Z,98900.63
2023-04-13T04:05:11.462Z,98905.69
2023-04-13T04:07:39.179Z,98901.44
2023-04-13T04:10:08.809Z,98908.78
2023-04-13T04:12:36.338Z,98907.63
2023-04-13T04:15:05.358Z,98908.44
2023-04-13T04:17:34.922Z,98919.78
2023-04-13T04:20:03.716Z,98922.88
2023-04-13T04:22:34.754Z,98917.16
2023-04-13T04:25:02.984Z,98929.56
2023-04-13T04:27:31.499Z,98929.56
2023-04-13T04:30:00.918Z,98937.78
2023-04-13T04:32:29.434Z,98935.38
2023-04-13T04:34:58.538Z,98941.00
2023-04-13T04:37:26.313Z,98949.63
2023-04-13T04:39:55.445Z,98960.28
2023-04-13T04:42:23.100Z,98956.25
2023-04-13T04:44:50.760Z,98962.34
2023-04-13T04:47:20.080Z,98961.88
2023-04-13T04:49:47.821Z,98973.47
2023-04-13T04:52:16.863Z,98979.56
2023-04-13T04:54:45.034Z,98986.19
2023-04-13T04:57:14.435Z,98991.72
2023-04-13T04:59:42.136Z,98984.84
2023-04-13T05:02:10.443Z,98995.16
2023-04-13T05:04:38.366Z,98996.75
2023-04-13T05:07:06.065Z,99001.03
2023-04-13T05:09:37.551Z,99003.78
2023-04-13T05:12:05.502Z,98999.97
2023-04-13T05:14:33.239Z,99005.38
2023-04-13T05:17:02.572Z,99006.97
2023-04-13T05:19:30.283Z,99011.78
2023-04-13T05:21:58.053Z,99010.16
2023-04-13T05:24:26.491Z,99015.00
2023-04-13T05:26:56.565Z,99020.03
2023-04-13T05:29:24.303Z,99023.81
2023-04-13T05:31:52.691Z,99031.53
2023-04-13T05:34:21.121Z,99033.69
2023-04-13T05:36:50.201Z,99032.66
2023-04-13T05:39:18.392Z,99039.56
2023-04-13T05:41:46.077Z,99033.25
2023-04-13T05:44:15.119Z,99040.69
2023-04-13T05:46:43.290Z,99042.84
2023-04-13T05:49:11.084Z,99048.50
2023-04-13T05:51:39.253Z,99042.97
2023-04-13T05:54:10.200Z,99044.09
2023-04-13T05:56:37.915Z,99053.97
2023-04-13T05:59:05.596Z,99061.66
2023-04-13T06:01:35.611Z,99069.59
2023-04-13T06:04:03.704Z,99077.63
2023-04-13T06:06:31.803Z,99078.16
2023-04-13T06:09:00.363Z,99080.00
2023-04-13T06:11:28.362Z,99093.56
2023-04-13T06:13:57.522Z,99080.34
2023-04-13T06:16:27.024Z,99090.94
2023-04-13T06:18:56.199Z,99093.66
2023-04-13T06:21:23.951Z,99091.59
2023-04-13T06:23:52.206Z,99096.41
2023-04-13T06:26:21.134Z,99096.41
2023-04-13T06:28:48.871Z,99099.16
2023-04-13T06:31:17.158Z,99106.03
2023-04-13T06:33:44.856Z,99105.34
2023-04-13T06:36:13.956Z,99107.88
2023-04-13T06:38:43.419Z,99114.28
2023-04-13T06:41:11.314Z,99114.38
2023-04-13T06:43:38.999Z,99128.72
2023-04-13T06:46:07.864Z,99137.00
2023-04-13T06:48:35.953Z,99127.78
2023-04-13T06:51:03.653Z,99144.78
2023-04-13T06:53:33.945Z,99146.25
2023-04-13T06:56:01.640Z,99130.19
2023-04-13T06:58:30.155Z,99143.75
2023-04-13T07:00:58.632Z,99136.69
2023-04-13T07:03:28.262Z,99140.69
2023-04-13T07:05:56.208Z,99149.06
2023-04-13T07:08:24.423Z,99136.72
2023-04-13T07:10:57.554Z,99137.84
2023-04-13T07:13:26.313Z,99151.97
2023-04-13T07:15:54.074Z,99151.03
2023-04-13T07:18:21.827Z,99155.38
2023-04-13T07:20:50.149Z,99158.13
2023-04-13T07:23:18.014Z,99158.41
2023-04-13T07:25:45.872Z,99168.88
2023-04-13T07:28:15.508Z,99179.53
2023-04-13T07:30:44.072Z,99189.50
2023-04-13T07:33:12.256Z,99181.63
2023-04-13T07:35:40.730Z,99195.19
2023-04-13T07:38:08.507Z,99194.38
2023-04-13T07:40:36.705Z,99204.50
2023-04-13T07:43:04.821Z,99208.50
2023-04-13T07:45:34.014Z,99212.88
2023-04-13T07:48:01.781Z,99228.50
2023-04-13T07:50:30.287Z,99221.91
2023-04-13T07:52:58.013Z,99224.56
2023-04-13T07:55:25.849Z,99227.88
2023-04-13T07:57:54.194Z,99232.13
2023-04-13T08:00:23.010Z,99243.84
2023-04-13T08:02:52.393Z,99241.50
2023-04-13T08:05:20.984Z,99244.47
2023-04-13T08:07:49.317Z,99252.94
2023-04-13T08:10:17.325Z,99260.97
2023-04-13T08:12:45.576Z,99249.56
2023-04-13T08:15:13.290Z,99254.59
2023-04-13T08:17:41.894Z,99259.41
2023-04-13T08:20:14.097Z,99258.13
2023-04-13T08:22:41.933Z,99265.09
2023-04-13T08:25:10.144Z,99263.03
2023-04-13T08:27:38.454Z,99267.63
2023-04-13T08:30:08.205Z,99261.38
2023-04-13T08:32:35.930Z,99273.91
2023-04-13T08:35:07.349Z,99267.28
2023-04-13T08:37:36.825Z,99272.59
2023-04-13T08:40:07.986Z,99278.69
2023-04-13T08:42:36.571Z,99273.91
2023-04-13T08:45:04.790Z,99288.25
2023-04-13T08:47:33.098Z,99280.28
2023-04-13T08:50:01.919Z,99285.78
2023-04-13T08:52:30.379Z,99292.75
2023-04-13T08:55:01.570Z,99298.63
2023-04-13T08:57:30.402Z,99299.19
2023-04-13T08:59:59.451Z,99304.00
2023-04-13T09:02:33.437Z,99314.19
2023-04-13T09:05:06.192Z,99305.81
2023-04-13T09:07:37.192Z,99306.44
2023-04-13T09:10:07.944Z,99309.16
2023-04-13T09:12:35.805Z,99315.59
2023-04-13T09:15:06.662Z,99311.41
2023-04-13T09:17:35.129Z,99316.47
2023-04-13T09:20:15.381Z,99320.16
2023-04-13T09:22:43.491Z,99322.09
2023-04-13T09:25:23.433Z,99314.59
2023-04-13T09:27:53.008Z,99321.53
2023-04-13T09:30:22.226Z,99321.03
2023-04-13T09:33:03.408Z,99322.69
2023-04-13T09:35:32.308Z,99330.19
2023-04-13T09:38:00.681Z,99339.00
2023-04-13T09:40:30.489Z,99338.03
2023-04-13T09:43:00.921Z,99338.59
2023-04-13T09:45:35.643Z,99342.84
2023-04-13T09:48:03.784Z,99342.66
2023-04-13T09:50:33.797Z,99340.88
2023-04-13T09:53:02.252Z,99348.41
2023-04-13T09:55:32.940Z,99348.78
2023-04-13T09:58:10.598Z,99355.78
2023-04-13T10:00:40.049Z,99363.81
2023-04-13T10:03:12.371Z,99358.28
2023-04-13T10:05:55.275Z,99358.16
2023-04-13T10:08:37.513Z,99365.13
2023-04-13T10:11:11.973Z,99370.06
2023-04-13T10:13:47.446Z,99363.47
2023-04-13T10:16:36.682Z,99367.47
2023-04-13T10:19:11.529Z,99370.97
2023-04-13T10:21:40.855Z,99376.56
2023-04-13T10:24:12.994Z,99378.72
2023-04-13T10:26:45.000Z,99387.81
2023-04-13T10:29:15.138Z,99406.78
2023-04-13T10:31:46.694Z,99408.06
2023-04-13T10:34:25.869Z,99398.53
2023-04-13T10:36:56.164Z,99416.63
2023-04-13T10:39:28.382Z,99402.03
2023-04-13T10:42:05.815Z,99410.88
2023-04-13T10:44:47.415Z,99412.69
2023-04-13T10:47:16.424Z,99420.91
2023-04-13T10:49:46.041Z,99425.75
2023-04-13T10:52:14.007Z,99429.56
2023-04-13T10:54:42.783Z,99429.66
2023-04-13T10:57:12.926Z,99417.25
2023-04-13T10:59:56.282Z,99426.13
2023-04-13T11:02:27.606Z,99428.59
2023-04-13T11:04:56.327Z,99421.69
2023-04-13T11:07:25.957Z,99440.91
2023-04-13T11:12:31.118Z,99431.97
2023-04-13T11:14:59.368Z,99429.63
2023-04-13T11:17:27.503Z,99443.50
2023-04-13T11:19:57.192Z,99434.50
2023-04-13T11:22:28.329Z,99435.56
2023-04-13T11:25:08.582Z,99437.19
2023-04-13T11:27:39.135Z,99433.19
2023-04-13T11:30:09.247Z,99438.25
2023-04-13T11:32:40.825Z,99435.09
2023-04-13T11:35:09.663Z,99449.50
2023-04-13T11:37:38.483Z,99445.25
2023-04-13T11:40:13.156Z,99443.41
2023-04-13T11:42:44.724Z,99456.75
2023-04-13T11:45:15.211Z,99454.41
2023-04-13T11:47:43.474Z,99456.50
2023-04-13T11:50:13.005Z,99463.22
2023-04-13T11:52:43.085Z,99454.97
2023-04-13T11:55:22.169Z,99463.00
2023-04-13T11:57:53.823Z,99456.38
2023-04-13T12:00:25.854Z,99456.88
2023-04-13T12:05:28.363Z,99455.06
2023-04-13T12:07:58.685Z,99459.88
2023-04-13T12:10:38.186Z,99460.13
2023-04-13T12:16:05.392Z,99450.56
2023-04-13T12:18:43.901Z,99444.16
2023-04-13T12:21:16.360Z,99452.16
2023-04-13T12:23:54.165Z,99455.91
2023-04-13T12:28:58.137Z,99445.78
2023-04-13T12:31:26.306Z,99451.13
2023-04-13T12:33:54.036Z,99454.31
2023-04-13T12:36:22.472Z,99464.72
2023-04-13T12:38:50.316Z,99459.13
2023-04-13T12:41:17.991Z,99460.75
2023-04-13T12:43:46.360Z,99458.88
2023-04-13T12:46:15.627Z,99475.44
2023-04-13T12:48:43.328Z,99450.59
2023-04-13T12:51:11.930Z,99462.63
2023-04-13T12:53:39.907Z,99461.53
2023-04-13T12:56:08.340Z,99466.38
2023-04-13T12:58:36.922Z,99461.81
2023-04-13T13:01:04.896Z,99451.66
2023-04-13T13:03:34.039Z,99467.69
2023-04-13T13:06:01.845Z,99471.16
2023-04-13T13:08:30.516Z,99471.16
2023-04-13T13:10:58.918Z,99466.38
2023-04-13T13:13:27.173Z,99467.16
2023-04-13T13:15:54.843Z,99469.56
2023-04-13T13:18:22.514Z,99465.28
2023-04-13T13:20:54.018Z,99470.34
2023-04-13T13:23:21.742Z,99475.69
2023-04-13T13:26:10.618Z,99480.25
2023-04-13T13:28:38.962Z,99479.13
2023-04-13T13:31:07.910Z,99489.06
2023-04-13T13:33:36.268Z,99475.41
2023-04-13T13:36:06.127Z,99488.25
2023-04-13T13:38:35.840Z,99483.72
2023-04-13T13:41:04.433Z,99481.56
2023-04-13T13:43:32.526Z,99485.88
2023-04-13T13:46:00.275Z,99496.75
2023-04-13T13:48:28.268Z,99487.94
2023-04-13T13:50:56.828Z,99487.97
2023-04-13T13:53:25.881Z,99485.59
2023-04-13T13:55:54.059Z,99504.28
2023-04-13T13:58:22.489Z,99494.13
2023-04-13T14:00:50.439Z,99498.66
2023-04-13T14:03:18.514Z,99496.78
2023-04-13T14:05:46.622Z,99496.28
2023-04-13T14:08:14.343Z,99500.53
2023-04-13T14:10:48.527Z,99509.63
2023-04-13T14:13:16.302Z,99503.75
2023-04-13T14:15:44.001Z,99505.34
2023-04-13T14:18:12.275Z,99507.22
2023-04-13T14:20:40.647Z,99502.69
2023-04-13T14:23:09.375Z,99512.28
2023-04-13T14:25:37.743Z,99506.44
2023-04-13T14:28:09.290Z,99515.75
2023-04-13T14:30:37.402Z,99520.81
2023-04-13T14:33:05.748Z,99514.44
2023-04-13T14:35:33.505Z,99522.97
2023-04-13T14:38:02.010Z,99509.63
2023-04-13T14:40:29.777Z,99518.13
2023-04-13T14:42:57.616Z,99513.84
2023-04-13T14:45:27.177Z,99511.72
2023-04-13T14:47:54.731Z,99506.63
2023-04-13T14:50:22.929Z,99524.81
2023-04-13T14:52:51.347Z,99521.84
2023-04-13T14:55:19.262Z,99531.22
2023-04-13T14:57:47.059Z,99532.81
2023-04-13T15:00:21.686Z,99521.31
2023-04-13T15:02:52.419Z,99521.56
2023-04-13T15:05:20.618Z,99521.31
2023-04-13T15:07:49.008Z,99527.16
2023-04-13T15:10:17.655Z,99515.41
2023-04-13T15:12:45.436Z,99525.03
2023-04-13T15:15:13.764Z,99531.41
2023-04-13T15:17:41.484Z,99527.66
2023-04-13T15:20:12.039Z,99533.25
2023-04-13T15:22:40.459Z,99548.16
2023-04-13T15:25:08.703Z,99545.78
2023-04-13T15:27:36.501Z,99541.78
2023-04-13T15:30:04.918Z,99555.63
2023-04-13T15:32:34.796Z,99557.50
2023-04-13T15:35:02.770Z,99551.88
2023-04-13T15:37:32.650Z,99569.72
2023-04-13T15:40:01.433Z,99566.25
2023-04-13T15:42:29.697Z,99568.91
2023-04-13T15:44:58.259Z,99578.72
2023-04-13T15:47:26.004Z,99575.22
2023-04-13T15:49:54.246Z,99578.06
2023-04-13T15:52:23.088Z,99581.50
2023-04-13T15:54:52.460Z,99596.16
2023-04-13T15:57:20.781Z,99593.47
2023-04-13T16:02:38.169Z,99605.88
2023-04-13T16:05:08.464Z,99610.06
2023-04-13T16:07:36.850Z,99606.78
2023-04-13T16:10:07.832Z,99610.78
2023-04-13T16:12:40.132Z,99600.88
2023-04-13T16:15:09.211Z,99610.69
2023-04-13T16:17:40.872Z,99605.88
2023-04-13T16:20:19.681Z,99611.66
2023-04-13T16:22:50.003Z,99612.13
2023-04-13T16:25:20.392Z,99613.88
2023-04-13T16:27:49.295Z,99614.63
2023-04-13T16:30:21.321Z,99616.44
2023-04-13T16:32:50.928Z,99615.84
2023-04-13T16:35:19.276Z,99627.78
2023-04-13T16:37:47.883Z,99634.34
2023-04-13T16:40:16.897Z,99638.06
2023-04-13T16:42:46.812Z,99643.66
2023-04-13T16:45:15.595Z,99647.13
2023-04-13T16:47:43.899Z,99651.59
2023-04-13T16:50:13.326Z,99653.44
2023-04-13T16:52:41.999Z,99653.13
2023-04-13T16:55:15.053Z,99653.63
2023-04-13T16:57:44.505Z,99654.59
2023-04-13T17:00:15.635Z,99647.69
2023-04-13T17:02:44.425Z,99647.38
2023-04-13T17:05:13.614Z,99652.69
2023-04-13T17:07:42.649Z,99647.63
2023-04-13T17:10:13.069Z,99652.69
2023-04-13T17:12:41.565Z,99655.13
2023-04-13T17:15:10.751Z,99650.84
2023-04-13T17:17:40.722Z,99642.34
2023-04-13T17:20:10.146Z,99655.66
2023-04-13T17:22:38.563Z,99655.66
2023-04-13T17:25:07.934Z,99664.69
2023-04-13T17:27:36.023Z,99659.38
2023-04-13T17:30:04.288Z,99663.09
2023-04-13T17:32:32.830Z,99664.97
2023-04-13T17:35:02.233Z,99662.53
2023-04-13T17:37:30.528Z,99654.78
2023-04-13T17:39:59.086Z,99655.06
2023-04-13T17:42:28.351Z,99665.13
2023-04-13T17:44:56.499Z,99661.91
2023-04-13T17:47:26.176Z,99660.31
2023-04-13T17:49:54.074Z,99662.72
2023-04-13T17:52:23.431Z,99666.09
2023-04-13T17:54:52.082Z,99658.88
2023-04-13T17:57:20.063Z,99669.69
2023-04-13T17:59:47.946Z,99672.28
2023-04-13T18:02:16.530Z,99679.13
2023-04-13T18:04:44.580Z,99683.09
2023-04-13T18:07:12.466Z,99690.97
2023-04-13T18:09:42.329Z,99696.00
2023-04-13T18:12:10.229Z,99688.91
2023-04-13T18:14:38.114Z,99705.97
2023-04-13T18:17:07.414Z,99705.66
2023-04-13T18:19:35.376Z,99703.81
2023-04-13T18:22:03.494Z,99708.53
2023-04-13T18:24:32.140Z,99718.06
2023-04-13T18:27:01.428Z,99729.16
2023-04-13T18:29:29.459Z,99728.84
2023-04-13T18:31:58.200Z,99723.44
2023-04-13T18:34:26.490Z,99732.72
2023-04-13T18:36:54.514Z,99732.38
2023-04-13T18:39:23.137Z,99732.84
2023-04-13T18:41:51.277Z,99735.75
2023-04-13T18:44:20.641Z,99742.91
2023-04-13T18:46:49.392Z,99745.25
2023-04-13T18:49:17.478Z,99753.47
2023-04-13T18:51:45.543Z,99758.19
2023-04-13T18:54:14.108Z,99760.00
2023-04-13T18:56:42.205Z,99768.59
2023-04-13T18:59:10.676Z,99766.16
2023-04-13T19:01:40.868Z,99765.31
2023-04-13T19:04:09.043Z,99763.50
2023-04-13T19:06:38.656Z,99767.75
2023-04-13T19:09:07.151Z,99771.47
2023-04-13T19:11:47.574Z,99776.78
2023-04-13T19:14:16.378Z,99790.28
2023-04-13T19:16:48.150Z,99785.22
2023-04-13T19:19:17.177Z,99793.09
2023-04-13T19:21:45.740Z,99797.00
2023-04-13T19:24:14.377Z,99798.31
2023-04-13T19:26:43.087Z,99799.34
2023-04-13T19:29:13.106Z,99802.47
2023-04-13T19:31:44.354Z,99807.22
2023-04-13T19:34:14.327Z,99812.75
2023-04-13T19:36:42.841Z,99816.09
2023-04-13T19:39:11.467Z,99817.41
2023-04-13T19:41:41.169Z,99824.81
2023-04-13T19:44:09.814Z,99827.13
2023-04-13T19:46:39.175Z,99831.03
2023-04-13T19:49:07.952Z,99830.22
2023-04-13T19:51:37.427Z,99847.44
2023-04-13T19:54:06.661Z,99842.59
2023-04-13T19:56:35.826Z,99855.31
2023-04-13T19:59:05.599Z,99849.19
2023-04-13T20:01:35.252Z,99856.56
2023-04-13T20:04:05.007Z,99850.56
2023-04-13T20:06:34.439Z,99849.19
2023-04-13T20:09:12.344Z,99858.41
2023-04-13T20:11:41.263Z,99855.09
2023-04-13T20:14:09.937Z,99853.94
2023-04-13T20:16:39.237Z,99856.47
2023-04-13T20:19:09.300Z,99860.06
2023-04-13T20:21:38.052Z,99859.47
2023-04-13T20:24:06.710Z,99856.69
2023-04-13T20:26:36.201Z,99860.84
2023-04-13T20:29:05.462Z,99863.19
2023-04-13T20:31:34.887Z,99864.66
2023-04-13T20:34:04.154Z,99865.34
2023-04-13T20:36:32.658Z,99867.19
2023-04-13T20:39:01.376Z,99874.00
2023-04-13T20:41:32.248Z,99871.59
2023-04-13T20:44:02.798Z,99875.28
2023-04-13T20:46:35.738Z,99866.97
2023-04-13T20:49:05.637Z,99867.66
2023-04-13T20:51:34.232Z,99868.91
2023-04-13T20:54:05.708Z,99872.84
2023-04-13T20:56:34.365Z,99870.63
2023-04-13T20:59:04.633Z,99875.34
2023-04-13T21:01:33.309Z,99875.00
2023-04-13T21:04:01.573Z,99871.38
2023-04-13T21:06:30.267Z,99872.19
2023-04-13T21:08:59.318Z,99872.88
2023-04-13T21:11:27.500Z,99876.56
2023-04-13T21:13:55.989Z,99875.19
2023-04-13T21:16:27.078Z,99879.66
2023-04-13T21:18:56.033Z,99879.31
2023-04-13T21:21:25.069Z,99875.72
2023-04-13T21:23:54.870Z,99876.97
2023-04-13T21:26:22.590Z,99882.66
2023-04-13T21:28:50.956Z,99873.09
2023-04-13T21:31:19.533Z,99868.66
2023-04-13T21:33:49.622Z,99880.31
2023-04-13T21:38:49.580Z,99871.41
2023-04-13T21:41:18.398Z,99872.69
2023-04-13T21:43:47.155Z,99879.00
2023-04-13T21:46:16.956Z,99881.66
2023-04-13T21:48:45.073Z,99875.22
2023-04-13T21:51:14.518Z,99869.66
2023-04-13T21:53:43.022Z,99878.44
2023-04-13T21:56:10.715Z,99869.44
2023-04-13T21:58:40.438Z,99876.81
2023-04-13T22:01:08.835Z,99886.75
2023-04-13T22:03:37.954Z,99881.66
2023-04-13T22:06:07.466Z,99877.25
2023-04-13T22:08:37.707Z,99886.38
2023-04-13T22:11:06.474Z,99888.44
2023-04-13T22:13:34.674Z,99876.44
2023-04-13T22:16:02.622Z,99883.03
2023-04-13T22:18:30.590Z,99883.47
2023-04-13T22:20:59.990Z,99884.25
2023-04-13T22:23:28.628Z,99884.94
2023-04-13T22:26:01.464Z,99882.13
2023-04-13T22:28:30.937Z,99877.75
2023-04-13T22:30:59.467Z,99879.78
2023-04-13T22:33:32.260Z,99880.25
2023-04-13T22:36:00.327Z,99876.00
2023-04-13T22:38:28.380Z,99876.44
2023-04-13T22:40:58.926Z,99882.75
2023-04-13T22:43:26.998Z,99882.16
2023-04-13T22:45:59.392Z,99884.81
2023-04-13T22:48:29.607Z,99884.22
2023-04-13T22:50:57.912Z,99881.00
2023-04-13T22:53:26.684Z,99882.25
2023-04-13T22:55:54.844Z,99875.34
2023-04-13T22:58:24.323Z,99877.38
2023-04-13T23:00:53.143Z,99870.94
2023-04-13T23:03:21.465Z,99876.44
2023-04-13T23:05:49.859Z,99876.44
2023-04-13T23:08:18.440Z,99881.16
2023-04-13T23:10:46.626Z,99879.53
2023-04-13T23:13:14.512Z,99880.78
2023-04-13T23:15:44.183Z,99874.69
2023-04-13T23:18:11.921Z,99875.84
2023-04-13T23:20:39.926Z,99879.75
2023-04-13T23:23:08.426Z,99875.94
2023-04-13T23:25:36.431Z,99881.44
2023-04-13T23:28:04.567Z,99883.50
2023-04-13T23:30:33.136Z,99888.22
2023-04-13T23:33:02.770Z,99887.63
2023-04-13T23:35:30.488Z,99887.19
2023-04-13T23:37:58.983Z,99878.88
2023-04-13T23:40:27.133Z,99883.78
2023-04-13T23:42:55.050Z,99884.25
2023-04-13T23:45:23.593Z,99879.81
2023-04-13T23:47:51.742Z,99884.75
2023-04-13T23:50:21.573Z,99887.59
2023-04-13T23:52:50.195Z,99890.91
2023-04-13T23:55:18.145Z,99892.16
2023-04-13T23:57:46.749Z,99887.28
